createdAt,value
2022-12-16T00:01:07.918Z,92.09
2022-12-16T00:03:11.432Z,91.86
2022-12-16T00:05:14.180Z,92.31
2022-12-16T00:07:16.830Z,91.59
2022-12-16T00:09:19.585Z,92.01
2022-12-16T00:11:22.338Z,92.47
2022-12-16T00:13:25.071Z,92.48
2022-12-16T00:15:27.705Z,92.41
2022-12-16T00:17:30.346Z,91.66
2022-12-16T00:19:33.044Z,92.03
2022-12-16T00:21:36.711Z,92.31
2022-12-16T00:23:41.920Z,92.24
2022-12-16T00:25:45.866Z,92.03
2022-12-16T00:27:48.474Z,92.08
2022-12-16T00:29:51.184Z,92.41
2022-12-16T00:31:53.892Z,91.83
2022-12-16T00:33:57.782Z,92.31
2022-12-16T00:36:00.375Z,91.56
2022-12-16T00:38:03.113Z,91.80
2022-12-16T00:40:06.305Z,91.11
2022-12-16T00:42:08.936Z,91.41
2022-12-16T00:44:11.589Z,90.79
2022-12-16T00:46:14.329Z,91.44
2022-12-16T00:48:17.199Z,90.85
2022-12-16T00:50:20.621Z,90.35
2022-12-16T00:52:23.288Z,90.81
2022-12-16T00:54:25.949Z,90.43
2022-12-16T00:56:28.570Z,91.53
2022-12-16T00:58:31.242Z,90.85
2022-12-16T01:00:33.829Z,91.31
2022-12-16T01:02:36.432Z,91.28
2022-12-16T01:04:38.989Z,91.00
2022-12-16T01:06:41.521Z,90.88
2022-12-16T01:08:48.939Z,90.61
2022-12-16T01:10:56.315Z,91.58
2022-12-16T01:12:58.909Z,90.41
2022-12-16T01:15:02.251Z,89.99
2022-12-16T01:17:07.984Z,90.42
2022-12-16T01:19:11.245Z,89.45
2022-12-16T01:21:15.542Z,90.49
2022-12-16T01:23:18.197Z,90.58
2022-12-16T01:25:20.779Z,90.65
2022-12-16T01:27:23.310Z,90.39
2022-12-16T01:29:25.880Z,90.37
2022-12-16T01:31:28.877Z,90.93
2022-12-16T01:33:33.819Z,90.25
2022-12-16T01:35:55.799Z,90.31
2022-12-16T01:37:58.630Z,90.73
2022-12-16T01:40:01.183Z,91.26
2022-12-16T01:42:04.080Z,90.30
2022-12-16T01:44:18.836Z,90.83
2022-12-16T01:46:25.158Z,90.54
2022-12-16T01:49:05.923Z,90.21
2022-12-16T01:51:16.907Z,90.47
2022-12-16T01:53:19.881Z,90.13
2022-12-16T01:55:28.004Z,91.15
2022-12-16T01:57:38.054Z,90.96
2022-12-16T01:59:45.300Z,90.97
2022-12-16T02:01:47.962Z,90.12
2022-12-16T02:03:53.228Z,90.42
2022-12-16T02:05:57.096Z,90.27
2022-12-16T02:08:07.704Z,90.81
2022-12-16T02:10:12.034Z,90.89
2022-12-16T02:12:57.019Z,90.80
2022-12-16T02:15:17.695Z,91.69
2022-12-16T02:17:47.509Z,90.78
2022-12-16T02:20:10.144Z,91.11
2022-12-16T02:22:58.424Z,91.15
2022-12-16T02:25:19.656Z,91.15
2022-12-16T02:28:00.202Z,90.99
2022-12-16T02:30:40.331Z,90.83
2022-12-16T02:33:07.310Z,90.81
2022-12-16T02:35:12.325Z,91.09
2022-12-16T02:37:18.252Z,91.69
2022-12-16T02:39:22.160Z,91.35
2022-12-16T02:41:57.670Z,91.96
2022-12-16T02:44:08.551Z,92.22
2022-12-16T02:46:12.128Z,92.44
2022-12-16T02:48:14.740Z,92.22
2022-12-16T02:50:21.943Z,92.38
2022-12-16T02:52:33.996Z,92.22
2022-12-16T02:54:36.540Z,92.76
2022-12-16T02:57:02.296Z,92.67
2022-12-16T02:59:28.078Z,92.61
2022-12-16T03:01:30.695Z,92.85
2022-12-16T03:03:48.232Z,92.25
2022-12-16T03:05:53.430Z,92.43
2022-12-16T03:07:59.441Z,92.61
2022-12-16T03:10:07.155Z,93.15
2022-12-16T03:12:13.577Z,93.03
2022-12-16T03:14:19.419Z,93.29
2022-12-16T03:16:30.281Z,93.03
2022-12-16T03:18:34.333Z,92.94
2022-12-16T03:20:50.271Z,93.40
2022-12-16T03:22:56.497Z,93.61
2022-12-16T03:24:59.681Z,93.55
2022-12-16T03:27:22.664Z,93.55
2022-12-16T03:29:34.901Z,94.02
2022-12-16T03:31:44.152Z,94.22
2022-12-16T03:34:18.743Z,94.07
2022-12-16T03:36:25.310Z,94.27
2022-12-16T03:38:31.116Z,94.61
2022-12-16T03:40:34.839Z,94.33
2022-12-16T03:42:38.917Z,94.37
2022-12-16T03:44:44.361Z,94.88
2022-12-16T03:46:48.179Z,94.71
2022-12-16T03:48:52.082Z,94.60
2022-12-16T03:50:56.037Z,94.41
2022-12-16T03:52:58.810Z,94.79
2022-12-16T03:55:01.742Z,94.07
2022-12-16T03:57:07.341Z,94.24
2022-12-16T03:59:13.199Z,94.76
2022-12-16T04:01:15.771Z,94.13
2022-12-16T04:03:18.495Z,94.18
2022-12-16T04:05:21.607Z,95.12
2022-12-16T04:07:24.997Z,94.93
2022-12-16T04:09:27.617Z,94.28
2022-12-16T04:11:48.953Z,94.57
2022-12-16T04:14:09.893Z,94.46
2022-12-16T04:16:35.338Z,94.35
2022-12-16T04:18:57.796Z,94.28
2022-12-16T04:21:19.754Z,94.44
2022-12-16T04:23:43.761Z,94.28
2022-12-16T04:25:46.763Z,94.46
2022-12-16T04:27:49.375Z,95.35
2022-12-16T04:30:30.545Z,95.02
2022-12-16T04:32:53.172Z,94.49
2022-12-16T04:34:55.736Z,94.57
2022-12-16T04:37:19.855Z,94.25
2022-12-16T04:39:40.844Z,94.54
2022-12-16T04:42:01.976Z,94.00
2022-12-16T04:44:23.585Z,94.58
2022-12-16T04:46:44.585Z,94.65
2022-12-16T04:49:05.884Z,94.03
2022-12-16T04:51:26.859Z,93.72
2022-12-16T04:53:47.711Z,94.30
2022-12-16T04:56:08.772Z,93.90
2022-12-16T04:58:29.777Z,94.55
2022-12-16T05:00:51.120Z,94.43
2022-12-16T05:03:12.156Z,94.18
2022-12-16T05:05:33.081Z,94.42
2022-12-16T05:07:54.008Z,94.54
2022-12-16T05:10:15.180Z,95.59
2022-12-16T05:12:36.306Z,95.77
2022-12-16T05:14:57.299Z,95.14
2022-12-16T05:17:18.506Z,95.86
2022-12-16T05:19:39.774Z,96.13
2022-12-16T05:22:01.020Z,95.65
2022-12-16T05:24:22.616Z,95.91
2022-12-16T05:26:43.695Z,95.29
2022-12-16T05:29:04.776Z,95.46
2022-12-16T05:31:25.705Z,95.67
2022-12-16T05:33:46.744Z,95.47
2022-12-16T05:36:07.971Z,94.85
2022-12-16T05:38:29.069Z,95.32
2022-12-16T05:40:49.965Z,94.97
2022-12-16T05:43:14.984Z,95.42
2022-12-16T05:45:38.155Z,95.12
2022-12-16T05:47:59.017Z,95.27
2022-12-16T05:50:20.086Z,95.09
2022-12-16T05:52:40.978Z,94.75
2022-12-16T05:55:02.156Z,95.33
2022-12-16T05:57:24.951Z,95.55
2022-12-16T05:59:46.080Z,95.59
2022-12-16T06:02:07.193Z,95.32
2022-12-16T06:04:28.389Z,94.98
2022-12-16T06:06:49.291Z,94.75
2022-12-16T06:09:10.368Z,94.89
2022-12-16T06:11:31.300Z,95.34
2022-12-16T06:13:52.253Z,94.52
2022-12-16T06:16:13.329Z,95.04
2022-12-16T06:18:34.334Z,95.06
2022-12-16T06:20:55.733Z,94.65
2022-12-16T06:23:19.938Z,94.43
2022-12-16T06:25:45.141Z,94.37
2022-12-16T06:28:11.748Z,93.96
2022-12-16T06:30:32.722Z,93.89
2022-12-16T06:32:53.809Z,94.47
2022-12-16T06:35:15.112Z,93.46
2022-12-16T06:37:36.095Z,94.16
2022-12-16T06:39:57.432Z,93.52
2022-12-16T06:42:19.201Z,94.05
2022-12-16T06:44:40.605Z,93.84
2022-12-16T06:47:01.562Z,92.78
2022-12-16T06:49:22.548Z,92.54
2022-12-16T06:51:43.532Z,92.69
2022-12-16T06:54:04.502Z,93.13
2022-12-16T06:56:25.980Z,93.31
2022-12-16T06:58:47.150Z,93.21
2022-12-16T07:01:08.309Z,93.72
2022-12-16T07:03:32.792Z,93.44
2022-12-16T07:05:56.781Z,94.13
2022-12-16T07:08:17.801Z,93.66
2022-12-16T07:10:38.725Z,94.02
2022-12-16T07:12:59.705Z,93.42
2022-12-16T07:15:21.117Z,93.54
2022-12-16T07:17:42.122Z,94.03
2022-12-16T07:20:03.079Z,93.32
2022-12-16T07:22:24.742Z,93.61
2022-12-16T07:24:45.837Z,93.24
2022-12-16T07:27:06.814Z,93.02
2022-12-16T07:29:32.712Z,93.19
2022-12-16T07:31:54.184Z,92.73
2022-12-16T07:34:15.324Z,93.22
2022-12-16T07:36:36.304Z,93.02
2022-12-16T07:38:57.334Z,92.77
2022-12-16T07:41:18.458Z,92.73
2022-12-16T07:43:39.643Z,92.67
2022-12-16T07:46:01.060Z,92.45
2022-12-16T07:48:22.466Z,92.33
2022-12-16T07:50:43.256Z,92.32
2022-12-16T07:53:04.454Z,91.69
2022-12-16T07:55:25.988Z,92.31
2022-12-16T07:57:47.026Z,91.72
2022-12-16T08:00:08.677Z,90.79
2022-12-16T08:02:30.456Z,90.58
2022-12-16T08:04:52.005Z,90.84
2022-12-16T08:07:12.967Z,91.53
2022-12-16T08:09:33.924Z,91.14
2022-12-16T08:11:54.984Z,91.01
2022-12-16T08:14:16.805Z,90.93
2022-12-16T08:16:37.750Z,90.48
2022-12-16T08:18:59.039Z,90.08
2022-12-16T08:21:19.948Z,90.49
2022-12-16T08:23:41.525Z,90.31
2022-12-16T08:26:02.262Z,90.19
2022-12-16T08:28:23.016Z,91.31
2022-12-16T08:30:44.398Z,90.74
2022-12-16T08:33:16.706Z,91.26
2022-12-16T08:35:40.497Z,91.00
2022-12-16T08:38:01.377Z,91.41
2022-12-16T08:40:38.154Z,91.79
2022-12-16T08:42:59.050Z,91.23
2022-12-16T08:45:20.167Z,91.30
2022-12-16T08:47:41.082Z,91.61
2022-12-16T08:50:02.692Z,92.12
2022-12-16T08:52:25.745Z,92.12
2022-12-16T08:54:46.826Z,92.17
2022-12-16T08:57:08.135Z,91.86
2022-12-16T08:59:29.380Z,91.58
2022-12-16T09:02:10.813Z,92.19
2022-12-16T09:04:32.096Z,91.71
2022-12-16T09:06:53.444Z,92.50
2022-12-16T09:09:14.416Z,92.08
2022-12-16T09:11:37.384Z,92.37
2022-12-16T09:13:58.628Z,91.72
2022-12-16T09:16:20.708Z,92.49
2022-12-16T09:18:41.972Z,91.91
2022-12-16T09:21:03.223Z,91.62
2022-12-16T09:23:24.823Z,91.98
2022-12-16T09:25:46.256Z,92.44
2022-12-16T09:28:10.444Z,91.88
2022-12-16T09:30:31.936Z,91.67
2022-12-16T09:32:53.161Z,91.30
2022-12-16T09:35:14.467Z,91.38
2022-12-16T09:37:35.811Z,91.50
2022-12-16T09:39:56.760Z,91.22
2022-12-16T09:42:49.155Z,91.31
2022-12-16T09:45:52.478Z,91.10
2022-12-16T09:48:38.681Z,90.83
2022-12-16T09:51:02.895Z,90.88
2022-12-16T09:53:29.514Z,91.70
2022-12-16T09:55:59.690Z,91.55
2022-12-16T09:58:21.116Z,91.71
2022-12-16T10:00:45.649Z,91.28
2022-12-16T10:03:08.969Z,90.96
2022-12-16T10:05:40.697Z,91.04
2022-12-16T10:08:19.067Z,91.54
2022-12-16T10:10:43.120Z,91.20
2022-12-16T10:13:30.278Z,90.93
2022-12-16T10:16:08.077Z,91.14
2022-12-16T10:18:45.436Z,91.24
2022-12-16T10:21:13.309Z,91.75
2022-12-16T10:23:44.841Z,91.48
2022-12-16T10:26:36.311Z,91.73
2022-12-16T10:29:02.169Z,91.75
2022-12-16T10:31:32.291Z,91.03
2022-12-16T10:33:54.152Z,91.72
2022-12-16T10:36:15.562Z,91.78
2022-12-16T10:39:04.580Z,91.25
2022-12-16T10:41:28.276Z,91.82
2022-12-16T10:44:01.446Z,91.51
2022-12-16T10:46:33.120Z,91.94
2022-12-16T10:48:57.064Z,91.19
2022-12-16T10:51:18.996Z,91.77
2022-12-16T10:53:45.736Z,91.42
2022-12-16T10:56:39.210Z,91.85
2022-12-16T10:59:16.409Z,92.27
2022-12-16T11:01:43.863Z,91.92
2022-12-16T11:04:05.232Z,92.05
2022-12-16T11:06:27.349Z,92.44
2022-12-16T11:08:55.624Z,92.53
2022-12-16T11:11:17.159Z,92.37
2022-12-16T11:13:51.417Z,92.58
2022-12-16T11:16:32.871Z,93.18
2022-12-16T11:19:08.347Z,93.22
2022-12-16T11:21:33.155Z,93.15
2022-12-16T11:23:54.068Z,93.81
2022-12-16T11:26:41.519Z,93.81
2022-12-16T11:29:02.472Z,93.95
2022-12-16T11:31:32.420Z,94.35
2022-12-16T11:33:53.984Z,94.62
2022-12-16T11:36:32.217Z,94.44
2022-12-16T11:39:07.718Z,94.36
2022-12-16T11:41:43.959Z,94.45
2022-12-16T11:44:10.681Z,94.80
2022-12-16T11:46:46.073Z,95.05
2022-12-16T11:49:13.997Z,95.07
2022-12-16T11:51:37.304Z,95.78
2022-12-16T11:54:18.121Z,95.68
2022-12-16T11:56:46.587Z,96.00
2022-12-16T11:59:11.697Z,95.76
2022-12-16T12:01:55.729Z,95.79
2022-12-16T12:04:17.340Z,95.90
2022-12-16T12:06:49.739Z,96.06
2022-12-16T12:09:23.398Z,96.34
2022-12-16T12:11:54.537Z,96.74
2022-12-16T12:14:34.355Z,96.33
2022-12-16T12:17:18.436Z,97.02
2022-12-16T12:20:10.103Z,96.68
2022-12-16T12:22:54.035Z,95.92
2022-12-16T12:25:43.531Z,96.77
2022-12-16T12:28:46.521Z,96.82
2022-12-16T12:31:33.820Z,97.62
2022-12-16T12:34:22.262Z,96.90
2022-12-16T12:37:28.210Z,97.35
2022-12-16T12:40:02.931Z,97.17
2022-12-16T12:42:33.629Z,98.07
2022-12-16T12:45:20.788Z,97.13
2022-12-16T12:47:42.254Z,97.16
2022-12-16T12:50:16.419Z,97.49
2022-12-16T12:53:12.280Z,97.48
2022-12-16T12:56:00.752Z,97.30
2022-12-16T12:58:26.000Z,97.21
2022-12-16T13:00:52.118Z,97.48
2022-12-16T13:03:37.339Z,97.79
2022-12-16T13:06:00.481Z,97.75
2022-12-16T13:08:50.396Z,98.10
2022-12-16T13:11:34.827Z,98.23
2022-12-16T13:13:56.505Z,98.22
2022-12-16T13:16:18.126Z,97.99
2022-12-16T13:18:42.382Z,98.42
2022-12-16T13:21:05.432Z,98.60
2022-12-16T13:23:56.205Z,98.78
2022-12-16T13:26:24.011Z,98.07
2022-12-16T13:28:52.508Z,98.27
2022-12-16T13:31:25.584Z,98.88
2022-12-16T13:33:49.918Z,98.71
2022-12-16T13:36:18.780Z,98.86
2022-12-16T13:38:41.368Z,98.35
2022-12-16T13:41:44.000Z,98.68
2022-12-16T13:44:08.105Z,98.71
2022-12-16T13:46:35.011Z,98.88
2022-12-16T13:48:59.628Z,99.05
2022-12-16T13:51:20.583Z,98.84
2022-12-16T13:53:45.917Z,98.95
2022-12-16T13:56:19.443Z,98.49
2022-12-16T13:58:46.761Z,98.51
2022-12-16T14:01:22.343Z,98.62
2022-12-16T14:04:05.714Z,98.69
2022-12-16T14:06:37.796Z,98.49
2022-12-16T14:08:59.928Z,98.65
2022-12-16T14:11:27.098Z,98.79
2022-12-16T14:14:20.907Z,98.93
2022-12-16T14:17:20.362Z,98.69
2022-12-16T14:20:03.536Z,98.86
2022-12-16T14:22:43.328Z,98.92
2022-12-16T14:25:04.299Z,99.38
2022-12-16T14:27:34.881Z,99.32
2022-12-16T14:29:56.797Z,99.18
2022-12-16T14:32:18.339Z,99.16
2022-12-16T14:34:41.634Z,98.93
2022-12-16T14:37:05.831Z,99.18
2022-12-16T14:39:40.881Z,98.89
2022-12-16T14:42:08.884Z,99.28
2022-12-16T14:44:53.216Z,99.15
2022-12-16T14:47:14.406Z,99.30
2022-12-16T14:49:42.608Z,99.53
2022-12-16T14:52:07.156Z,99.14
2022-12-16T14:54:55.033Z,99.49
2022-12-16T14:57:16.816Z,99.47
2022-12-16T14:59:40.108Z,99.66
2022-12-16T15:02:01.550Z,99.86
2022-12-16T15:04:28.559Z,99.70
2022-12-16T15:07:02.132Z,99.97
2022-12-16T15:09:25.373Z,99.81
2022-12-16T15:11:46.735Z,99.97
2022-12-16T15:14:13.323Z,99.89
2022-12-16T15:16:40.441Z,100.00
2022-12-16T15:19:05.140Z,99.86
2022-12-16T15:21:28.891Z,99.98
2022-12-16T15:23:52.896Z,100.00
2022-12-16T15:26:16.884Z,100.00
2022-12-16T15:29:05.522Z,100.00
2022-12-16T15:31:41.684Z,100.00
2022-12-16T15:34:02.791Z,100.00
2022-12-16T15:36:25.777Z,100.00
2022-12-16T15:38:52.512Z,100.00
2022-12-16T15:41:13.565Z,100.00
2022-12-16T15:43:47.990Z,100.00
2022-12-16T15:46:10.313Z,100.00
2022-12-16T15:48:43.829Z,100.00
2022-12-16T15:51:11.684Z,100.00
2022-12-16T15:53:47.938Z,100.00
2022-12-16T15:56:15.201Z,100.00
2022-12-16T15:58:48.609Z,100.00
2022-12-16T16:01:19.061Z,100.00
2022-12-16T16:03:49.747Z,100.00
2022-12-16T16:06:10.680Z,100.00
2022-12-16T16:08:31.798Z,100.00
2022-12-16T16:10:52.671Z,100.00
2022-12-16T16:13:14.853Z,100.00
2022-12-16T16:15:37.703Z,100.00
2022-12-16T16:17:59.384Z,100.00
2022-12-16T16:20:20.815Z,100.00
2022-12-16T16:22:42.056Z,100.00
2022-12-16T16:25:03.246Z,100.00
2022-12-16T16:27:29.767Z,100.00
2022-12-16T16:29:51.045Z,100.00
2022-12-16T16:32:12.186Z,100.00
2022-12-16T16:34:33.015Z,100.00
2022-12-16T16:36:53.892Z,100.00
2022-12-16T16:39:15.211Z,100.00
2022-12-16T16:41:36.524Z,100.00
2022-12-16T16:43:57.620Z,100.00
2022-12-16T16:46:19.226Z,100.00
2022-12-16T16:48:40.549Z,100.00
2022-12-16T16:51:01.717Z,100.00
2022-12-16T16:53:22.701Z,100.00
2022-12-16T16:55:44.064Z,100.00
2022-12-16T16:58:05.710Z,100.00
2022-12-16T17:00:29.708Z,100.00
2022-12-16T17:02:51.108Z,100.00
2022-12-16T17:05:12.477Z,100.00
2022-12-16T17:07:33.608Z,100.00
2022-12-16T17:09:55.007Z,100.00
2022-12-16T17:12:17.552Z,100.00
2022-12-16T17:14:40.212Z,100.00
2022-12-16T17:17:01.170Z,100.00
2022-12-16T17:19:22.402Z,100.00
2022-12-16T17:21:43.833Z,100.00
2022-12-16T17:24:05.450Z,100.00
2022-12-16T17:26:29.356Z,100.00
2022-12-16T17:28:50.633Z,100.00
2022-12-16T17:31:11.701Z,100.00
2022-12-16T17:33:33.771Z,100.00
2022-12-16T17:35:55.996Z,100.00
2022-12-16T17:38:17.531Z,100.00
2022-12-16T17:40:38.443Z,100.00
2022-12-16T17:42:59.613Z,100.00
2022-12-16T17:45:20.765Z,100.00
2022-12-16T17:47:41.575Z,100.00
2022-12-16T17:50:02.484Z,100.00
2022-12-16T17:52:24.682Z,100.00
2022-12-16T17:54:45.572Z,100.00
2022-12-16T17:57:06.462Z,100.00
2022-12-16T17:59:28.157Z,100.00
2022-12-16T18:01:49.172Z,99.58
2022-12-16T18:04:10.707Z,99.58
2022-12-16T18:06:32.087Z,99.90
2022-12-16T18:08:53.236Z,99.71
2022-12-16T18:11:16.234Z,99.41
2022-12-16T18:13:37.316Z,99.83
2022-12-16T18:15:58.742Z,99.58
2022-12-16T18:18:19.848Z,99.83
2022-12-16T18:20:40.876Z,100.00
2022-12-16T18:23:02.293Z,100.00
2022-12-16T18:25:23.848Z,100.00
2022-12-16T18:27:45.262Z,100.00
2022-12-16T18:30:06.401Z,100.00
2022-12-16T18:32:33.414Z,100.00
2022-12-16T18:34:56.021Z,99.67
2022-12-16T18:37:18.864Z,100.00
2022-12-16T18:39:40.194Z,100.00
2022-12-16T18:42:08.237Z,100.00
2022-12-16T18:44:31.856Z,100.00
2022-12-16T18:46:53.349Z,99.91
2022-12-16T18:49:14.390Z,99.85
2022-12-16T18:51:35.646Z,99.83
2022-12-16T18:53:57.675Z,99.88
2022-12-16T18:56:24.964Z,99.75
2022-12-16T18:58:53.084Z,99.36
2022-12-16T19:01:27.825Z,99.76
2022-12-16T19:03:49.252Z,99.61
2022-12-16T19:06:14.497Z,99.61
2022-12-16T19:08:36.203Z,99.67
2022-12-16T19:10:57.465Z,99.64
2022-12-16T19:13:18.470Z,99.45
2022-12-16T19:15:41.444Z,99.47
2022-12-16T19:18:02.723Z,99.53
2022-12-16T19:20:28.588Z,99.45
2022-12-16T19:22:52.394Z,99.53
2022-12-16T19:25:15.935Z,99.13
2022-12-16T19:27:37.078Z,99.35
2022-12-16T19:29:58.425Z,99.12
2022-12-16T19:32:20.119Z,98.97
2022-12-16T19:34:41.417Z,99.35
2022-12-16T19:37:02.875Z,98.70
2022-12-16T19:39:24.042Z,98.79
2022-12-16T19:41:44.995Z,98.82
2022-12-16T19:44:06.784Z,98.93
2022-12-16T19:46:28.181Z,98.96
2022-12-16T19:48:49.036Z,99.36
2022-12-16T19:51:20.906Z,99.14
2022-12-16T19:53:42.219Z,99.37
2022-12-16T19:56:03.274Z,99.17
2022-12-16T19:58:25.038Z,99.26
2022-12-16T20:00:45.943Z,99.03
2022-12-16T20:03:07.239Z,99.60
2022-12-16T20:05:28.449Z,99.05
2022-12-16T20:07:49.562Z,99.88
2022-12-16T20:10:10.518Z,99.73
2022-12-16T20:12:31.429Z,99.95
2022-12-16T20:14:53.411Z,99.89
2022-12-16T20:17:14.510Z,99.23
2022-12-16T20:19:35.830Z,99.94
2022-12-16T20:21:58.866Z,99.66
2022-12-16T20:24:22.051Z,99.40
2022-12-16T20:26:43.418Z,99.49
2022-12-16T20:29:05.499Z,99.33
2022-12-16T20:31:37.256Z,99.19
2022-12-16T20:34:02.974Z,99.48
2022-12-16T20:36:24.822Z,99.53
2022-12-16T20:38:45.865Z,99.18
2022-12-16T20:41:17.199Z,99.21
2022-12-16T20:43:38.850Z,99.09
2022-12-16T20:46:00.179Z,98.76
2022-12-16T20:48:21.782Z,99.13
2022-12-16T20:50:42.968Z,99.15
2022-12-16T20:53:04.246Z,99.62
2022-12-16T20:55:25.787Z,99.30
2022-12-16T20:57:46.919Z,99.59
2022-12-16T21:00:08.098Z,99.79
2022-12-16T21:02:35.055Z,99.43
2022-12-16T21:04:56.415Z,99.94
2022-12-16T21:07:17.505Z,99.31
2022-12-16T21:09:38.851Z,99.35
2022-12-16T21:11:59.887Z,98.90
2022-12-16T21:14:21.179Z,98.90
2022-12-16T21:16:42.168Z,98.84
2022-12-16T21:19:03.592Z,98.19
2022-12-16T21:21:25.108Z,98.35
2022-12-16T21:23:46.297Z,98.77
2022-12-16T21:26:08.112Z,99.47
2022-12-16T21:28:31.091Z,99.61
2022-12-16T21:30:52.300Z,100.00
2022-12-16T21:33:14.016Z,99.97
2022-12-16T21:35:34.962Z,99.98
2022-12-16T21:37:55.837Z,99.87
2022-12-16T21:40:17.681Z,100.00
2022-12-16T21:42:58.528Z,100.00
2022-12-16T21:45:19.760Z,100.00
2022-12-16T21:47:40.634Z,100.00
2022-12-16T21:50:02.307Z,99.64
2022-12-16T21:52:24.989Z,99.54
2022-12-16T21:54:46.168Z,99.75
2022-12-16T21:57:07.190Z,99.72
2022-12-16T21:59:28.271Z,99.83
2022-12-16T22:01:51.265Z,99.71
2022-12-16T22:04:13.092Z,99.98
2022-12-16T22:06:34.181Z,99.92
2022-12-16T22:08:56.215Z,99.92
2022-12-16T22:11:17.608Z,99.78
2022-12-16T22:13:39.140Z,99.63
2022-12-16T22:16:02.662Z,99.87
2022-12-16T22:18:24.463Z,99.84
2022-12-16T22:20:45.655Z,100.00
2022-12-16T22:23:06.864Z,100.00
2022-12-16T22:25:29.001Z,99.99
2022-12-16T22:27:50.178Z,100.00
2022-12-16T22:30:11.613Z,100.00
2022-12-16T22:32:32.650Z,99.93
2022-12-16T22:34:53.636Z,100.00
2022-12-16T22:37:16.802Z,100.00
2022-12-16T22:39:42.861Z,100.00
2022-12-16T22:42:06.030Z,100.00
2022-12-16T22:44:28.574Z,100.00
2022-12-16T22:46:50.551Z,100.00
2022-12-16T22:49:11.986Z,100.00
2022-12-16T22:51:35.023Z,100.00
2022-12-16T22:53:56.414Z,99.94
2022-12-16T22:56:17.762Z,99.69
2022-12-16T22:58:38.878Z,99.65
2022-12-16T23:00:59.958Z,99.70
2022-12-16T23:03:21.955Z,99.85
2022-12-16T23:05:43.186Z,100.00
2022-12-16T23:08:04.316Z,99.73
2022-12-16T23:10:26.373Z,99.62
2022-12-16T23:12:47.949Z,99.55
2022-12-16T23:15:15.427Z,99.40
2022-12-16T23:17:36.468Z,100.00
2022-12-16T23:19:57.796Z,99.80
2022-12-16T23:22:19.249Z,99.59
2022-12-16T23:24:40.219Z,99.51
2022-12-16T23:27:02.779Z,99.83
2022-12-16T23:29:24.554Z,99.83
2022-12-16T23:31:45.550Z,99.46
2022-12-16T23:34:06.886Z,99.09
2022-12-16T23:36:28.093Z,99.34
2022-12-16T23:38:49.733Z,99.29
2022-12-16T23:41:15.639Z,99.32
2022-12-16T23:43:36.514Z,99.29
2022-12-16T23:45:57.896Z,99.86
2022-12-16T23:48:24.423Z,98.95
2022-12-16T23:50:45.391Z,99.03
2022-12-16T23:53:06.550Z,98.21
2022-12-16T23:55:28.199Z,98.32
2022-12-16T23:57:49.327Z,97.95
